sensor_id;sensor_type;location;lat;lon;timestamp;temperature;humidity
10512;DHT22;5304;48.604;2.096;2023-03-24T00:02:34;13.70;99.90
10512;DHT22;5304;48.604;2.096;2023-03-24T00:05:22;13.70;99.90
10512;DHT22;5304;48.604;2.096;2023-03-24T00:08:07;13.70;99.90
10512;DHT22;5304;48.604;2.096;2023-03-24T00:10:51;13.70;99.90
10512;DHT22;5304;48.604;2.096;2023-03-24T00:13:37;13.70;99.90
10512;DHT22;5304;48.604;2.096;2023-03-24T00:16:22;13.70;99.90
10512;DHT22;5304;48.604;2.096;2023-03-24T00:19:09;13.70;99.90
10512;DHT22;5304;48.604;2.096;2023-03-24T00:21:53;13.70;99.90
10512;DHT22;5304;48.604;2.096;2023-03-24T00:24:40;13.70;99.90
10512;DHT22;5304;48.604;2.096;2023-03-24T00:27:24;13.70;99.90
10512;DHT22;5304;48.604;2.096;2023-03-24T00:30:14;13.70;99.90
10512;DHT22;5304;48.604;2.096;2023-03-24T00:32:59;13.70;99.90
10512;DHT22;5304;48.604;2.096;2023-03-24T00:35:45;13.70;99.90
10512;DHT22;5304;48.604;2.096;2023-03-24T00:38:33;13.60;99.90
10512;DHT22;5304;48.604;2.096;2023-03-24T00:41:18;13.60;99.90
10512;DHT22;5304;48.604;2.096;2023-03-24T00:44:03;13.60;99.90
10512;DHT22;5304;48.604;2.096;2023-03-24T00:46:50;13.60;99.90
10512;DHT22;5304;48.604;2.096;2023-03-24T00:49:45;13.50;99.90
10512;DHT22;5304;48.604;2.096;2023-03-24T00:52:30;13.50;99.90
10512;DHT22;5304;48.604;2.096;2023-03-24T00:55:17;13.60;99.90
10512;DHT22;5304;48.604;2.096;2023-03-24T00:58:02;13.50;99.90
10512;DHT22;5304;48.604;2.096;2023-03-24T01:00:50;13.50;99.90
10512;DHT22;5304;48.604;2.096;2023-03-24T01:03:35;13.50;99.90
10512;DHT22;5304;48.604;2.096;2023-03-24T01:06:32;13.50;99.90
10512;DHT22;5304;48.604;2.096;2023-03-24T01:09:19;13.50;99.90
10512;DHT22;5304;48.604;2.096;2023-03-24T01:12:06;13.50;99.90
10512;DHT22;5304;48.604;2.096;2023-03-24T01:14:52;13.50;99.90
10512;DHT22;5304;48.604;2.096;2023-03-24T01:17:36;13.50;99.90
10512;DHT22;5304;48.604;2.096;2023-03-24T01:20:22;13.50;99.90
10512;DHT22;5304;48.604;2.096;2023-03-24T01:23:07;13.50;99.90
10512;DHT22;5304;48.604;2.096;2023-03-24T01:25:53;13.40;99.90
10512;DHT22;5304;48.604;2.096;2023-03-24T01:28:39;13.30;99.90
10512;DHT22;5304;48.604;2.096;2023-03-24T01:31:24;13.20;99.90
10512;DHT22;5304;48.604;2.096;2023-03-24T01:34:09;13.30;99.90
10512;DHT22;5304;48.604;2.096;2023-03-24T01:36:53;13.30;99.90
10512;DHT22;5304;48.604;2.096;2023-03-24T01:39:38;13.30;99.90
10512;DHT22;5304;48.604;2.096;2023-03-24T01:42:25;13.30;99.90
10512;DHT22;5304;48.604;2.096;2023-03-24T01:51:31;13.30;99.90
10512;DHT22;5304;48.604;2.096;2023-03-24T01:54:23;13.30;99.90
10512;DHT22;5304;48.604;2.096;2023-03-24T01:57:12;13.30;99.90
10512;DHT22;5304;48.604;2.096;2023-03-24T02:00:00;13.20;99.90
10512;DHT22;5304;48.604;2.096;2023-03-24T02:02:53;13.30;99.90
10512;DHT22;5304;48.604;2.096;2023-03-24T02:05:43;13.30;99.90
10512;DHT22;5304;48.604;2.096;2023-03-24T02:09:06;13.20;99.90
10512;DHT22;5304;48.604;2.096;2023-03-24T02:11:49;13.10;99.90
10512;DHT22;5304;48.604;2.096;2023-03-24T02:14:34;13.10;99.90
10512;DHT22;5304;48.604;2.096;2023-03-24T02:23:56;13.10;99.90
10512;DHT22;5304;48.604;2.096;2023-03-24T02:43:16;13.00;99.90
10512;DHT22;5304;48.604;2.096;2023-03-24T02:52:27;12.90;99.90
10512;DHT22;5304;48.604;2.096;2023-03-24T02:55:16;12.80;99.90
10512;DHT22;5304;48.604;2.096;2023-03-24T02:58:10;12.80;99.90
10512;DHT22;5304;48.604;2.096;2023-03-24T03:04:34;12.90;99.90
10512;DHT22;5304;48.604;2.096;2023-03-24T03:07:24;12.80;99.90
10512;DHT22;5304;48.604;2.096;2023-03-24T03:10:20;12.70;99.90
10512;DHT22;5304;48.604;2.096;2023-03-24T03:13:15;12.60;99.90
10512;DHT22;5304;48.604;2.096;2023-03-24T03:16:32;12.60;99.90
10512;DHT22;5304;48.604;2.096;2023-03-24T03:19:30;12.60;99.90
10512;DHT22;5304;48.604;2.096;2023-03-24T03:22:21;12.60;99.90
10512;DHT22;5304;48.604;2.096;2023-03-24T03:25:06;12.50;99.90
10512;DHT22;5304;48.604;2.096;2023-03-24T03:27:52;12.50;99.90
10512;DHT22;5304;48.604;2.096;2023-03-24T03:30:43;12.50;99.90
10512;DHT22;5304;48.604;2.096;2023-03-24T03:33:34;12.50;99.90
10512;DHT22;5304;48.604;2.096;2023-03-24T03:36:42;12.40;99.90
10512;DHT22;5304;48.604;2.096;2023-03-24T03:39:34;12.40;99.90
10512;DHT22;5304;48.604;2.096;2023-03-24T03:42:20;12.40;99.90
10512;DHT22;5304;48.604;2.096;2023-03-24T03:45:09;12.30;99.90
10512;DHT22;5304;48.604;2.096;2023-03-24T03:47:55;12.20;99.90
10512;DHT22;5304;48.604;2.096;2023-03-24T03:50:40;12.20;99.90
10512;DHT22;5304;48.604;2.096;2023-03-24T03:53:34;12.20;99.90
10512;DHT22;5304;48.604;2.096;2023-03-24T03:56:25;12.20;99.90
10512;DHT22;5304;48.604;2.096;2023-03-24T03:59:24;12.20;99.90
10512;DHT22;5304;48.604;2.096;2023-03-24T04:02:39;12.20;99.90
10512;DHT22;5304;48.604;2.096;2023-03-24T04:05:35;12.10;99.90
10512;DHT22;5304;48.604;2.096;2023-03-24T04:08:44;12.10;99.90
10512;DHT22;5304;48.604;2.096;2023-03-24T04:21:25;12.00;99.90
10512;DHT22;5304;48.604;2.096;2023-03-24T04:24:23;11.90;99.90
10512;DHT22;5304;48.604;2.096;2023-03-24T04:27:24;11.80;99.90
10512;DHT22;5304;48.604;2.096;2023-03-24T04:33:13;11.60;99.90
10512;DHT22;5304;48.604;2.096;2023-03-24T04:36:06;11.60;99.90
10512;DHT22;5304;48.604;2.096;2023-03-24T04:39:02;11.60;99.90
10512;DHT22;5304;48.604;2.096;2023-03-24T04:41:48;11.60;99.90
10512;DHT22;5304;48.604;2.096;2023-03-24T04:44:33;11.50;99.90
10512;DHT22;5304;48.604;2.096;2023-03-24T04:47:24;11.50;99.90
10512;DHT22;5304;48.604;2.096;2023-03-24T04:50:11;11.50;99.90
10512;DHT22;5304;48.604;2.096;2023-03-24T04:52:56;11.40;99.90
10512;DHT22;5304;48.604;2.096;2023-03-24T04:55:52;11.40;99.90
10512;DHT22;5304;48.604;2.096;2023-03-24T04:58:37;11.40;99.90
10512;DHT22;5304;48.604;2.096;2023-03-24T05:01:21;11.40;99.90
10512;DHT22;5304;48.604;2.096;2023-03-24T05:04:09;11.50;99.90
10512;DHT22;5304;48.604;2.096;2023-03-24T05:06:54;11.40;99.90
10512;DHT22;5304;48.604;2.096;2023-03-24T05:09:38;11.50;99.90
10512;DHT22;5304;48.604;2.096;2023-03-24T05:12:22;11.40;99.90
10512;DHT22;5304;48.604;2.096;2023-03-24T05:15:07;11.40;99.90
10512;DHT22;5304;48.604;2.096;2023-03-24T05:17:52;11.40;99.90
10512;DHT22;5304;48.604;2.096;2023-03-24T05:20:36;11.20;99.90
10512;DHT22;5304;48.604;2.096;2023-03-24T05:23:23;11.20;99.90
10512;DHT22;5304;48.604;2.096;2023-03-24T05:26:07;11.10;99.90
10512;DHT22;5304;48.604;2.096;2023-03-24T05:28:52;11.00;99.90
10512;DHT22;5304;48.604;2.096;2023-03-24T05:31:36;11.00;99.90
10512;DHT22;5304;48.604;2.096;2023-03-24T05:34:21;10.90;99.90
10512;DHT22;5304;48.604;2.096;2023-03-24T05:37:06;10.80;99.90
10512;DHT22;5304;48.604;2.096;2023-03-24T05:39:55;10.80;99.90
10512;DHT22;5304;48.604;2.096;2023-03-24T05:42:39;10.70;99.90
10512;DHT22;5304;48.604;2.096;2023-03-24T05:45:23;10.70;99.90
10512;DHT22;5304;48.604;2.096;2023-03-24T05:48:08;10.60;99.90
10512;DHT22;5304;48.604;2.096;2023-03-24T05:50:53;10.60;99.90
10512;DHT22;5304;48.604;2.096;2023-03-24T05:53:38;10.60;99.90
10512;DHT22;5304;48.604;2.096;2023-03-24T05:56:23;10.60;99.90
10512;DHT22;5304;48.604;2.096;2023-03-24T05:59:07;10.50;99.90
10512;DHT22;5304;48.604;2.096;2023-03-24T06:01:51;10.50;99.90
10512;DHT22;5304;48.604;2.096;2023-03-24T06:04:42;10.50;99.90
10512;DHT22;5304;48.604;2.096;2023-03-24T06:07:32;10.50;99.90
10512;DHT22;5304;48.604;2.096;2023-03-24T06:10:17;10.50;99.90
10512;DHT22;5304;48.604;2.096;2023-03-24T06:13:01;10.50;99.90
10512;DHT22;5304;48.604;2.096;2023-03-24T06:15:46;10.40;99.90
10512;DHT22;5304;48.604;2.096;2023-03-24T06:18:32;10.40;99.90
10512;DHT22;5304;48.604;2.096;2023-03-24T06:21:17;10.40;99.90
10512;DHT22;5304;48.604;2.096;2023-03-24T06:24:02;10.30;99.90
10512;DHT22;5304;48.604;2.096;2023-03-24T06:26:47;10.40;99.90
10512;DHT22;5304;48.604;2.096;2023-03-24T06:29:33;10.40;99.90
10512;DHT22;5304;48.604;2.096;2023-03-24T06:32:19;10.40;99.90
10512;DHT22;5304;48.604;2.096;2023-03-24T06:35:03;10.50;99.90
10512;DHT22;5304;48.604;2.096;2023-03-24T06:37:48;10.60;99.90
10512;DHT22;5304;48.604;2.096;2023-03-24T06:40:33;10.70;99.90
10512;DHT22;5304;48.604;2.096;2023-03-24T06:43:18;10.80;99.90
10512;DHT22;5304;48.604;2.096;2023-03-24T06:46:02;10.90;99.90
10512;DHT22;5304;48.604;2.096;2023-03-24T06:48:47;11.00;99.90
10512;DHT22;5304;48.604;2.096;2023-03-24T06:51:32;11.10;99.90
10512;DHT22;5304;48.604;2.096;2023-03-24T06:54:16;11.10;99.90
10512;DHT22;5304;48.604;2.096;2023-03-24T06:57:01;11.00;99.90
10512;DHT22;5304;48.604;2.096;2023-03-24T06:59:45;11.00;99.90
10512;DHT22;5304;48.604;2.096;2023-03-24T07:02:30;10.90;99.90
10512;DHT22;5304;48.604;2.096;2023-03-24T07:05:18;11.00;99.90
10512;DHT22;5304;48.604;2.096;2023-03-24T07:08:03;11.20;99.90
10512;DHT22;5304;48.604;2.096;2023-03-24T07:10:48;11.40;99.90
10512;DHT22;5304;48.604;2.096;2023-03-24T07:13:33;11.50;99.90
10512;DHT22;5304;48.604;2.096;2023-03-24T07:16:18;11.50;99.90
10512;DHT22;5304;48.604;2.096;2023-03-24T07:19:02;11.70;99.90
10512;DHT22;5304;48.604;2.096;2023-03-24T07:21:47;12.00;99.90
10512;DHT22;5304;48.604;2.096;2023-03-24T07:24:34;12.10;99.90
10512;DHT22;5304;48.604;2.096;2023-03-24T07:27:19;12.40;99.90
10512;DHT22;5304;48.604;2.096;2023-03-24T07:30:03;12.70;99.90
10512;DHT22;5304;48.604;2.096;2023-03-24T07:32:48;12.90;99.90
10512;DHT22;5304;48.604;2.096;2023-03-24T07:35:33;13.20;99.90
10512;DHT22;5304;48.604;2.096;2023-03-24T07:38:18;14.00;99.90
10512;DHT22;5304;48.604;2.096;2023-03-24T07:41:02;14.90;99.90
10512;DHT22;5304;48.604;2.096;2023-03-24T07:43:47;15.40;99.90
10512;DHT22;5304;48.604;2.096;2023-03-24T07:46:31;16.00;99.90
10512;DHT22;5304;48.604;2.096;2023-03-24T07:49:16;16.40;99.90
10512;DHT22;5304;48.604;2.096;2023-03-24T07:52:00;16.70;99.90
10512;DHT22;5304;48.604;2.096;2023-03-24T07:54:49;17.00;99.90
10512;DHT22;5304;48.604;2.096;2023-03-24T07:57:33;16.90;99.90
10512;DHT22;5304;48.604;2.096;2023-03-24T08:00:21;16.90;99.90
10512;DHT22;5304;48.604;2.096;2023-03-24T08:03:12;16.50;99.90
10512;DHT22;5304;48.604;2.096;2023-03-24T08:05:57;16.20;99.90
10512;DHT22;5304;48.604;2.096;2023-03-24T08:08:42;17.00;99.90
10512;DHT22;5304;48.604;2.096;2023-03-24T08:11:26;16.90;99.90
10512;DHT22;5304;48.604;2.096;2023-03-24T08:14:10;17.10;99.90
10512;DHT22;5304;48.604;2.096;2023-03-24T08:16:55;16.60;99.90
10512;DHT22;5304;48.604;2.096;2023-03-24T08:19:40;15.70;99.90
10512;DHT22;5304;48.604;2.096;2023-03-24T08:22:24;15.40;99.90
10512;DHT22;5304;48.604;2.096;2023-03-24T08:25:10;15.50;99.90
10512;DHT22;5304;48.604;2.096;2023-03-24T08:27:55;15.00;99.90
10512;DHT22;5304;48.604;2.096;2023-03-24T08:30:40;14.90;99.90
10512;DHT22;5304;48.604;2.096;2023-03-24T08:33:26;16.00;99.90
10512;DHT22;5304;48.604;2.096;2023-03-24T08:36:11;16.10;99.90
10512;DHT22;5304;48.604;2.096;2023-03-24T08:38:55;16.70;99.90
10512;DHT22;5304;48.604;2.096;2023-03-24T08:41:40;16.30;99.90
10512;DHT22;5304;48.604;2.096;2023-03-24T08:44:24;15.80;99.90
10512;DHT22;5304;48.604;2.096;2023-03-24T08:47:09;15.80;99.90
10512;DHT22;5304;48.604;2.096;2023-03-24T08:49:55;15.30;99.90
10512;DHT22;5304;48.604;2.096;2023-03-24T08:52:43;15.50;99.90
10512;DHT22;5304;48.604;2.096;2023-03-24T08:55:34;16.00;99.90
10512;DHT22;5304;48.604;2.096;2023-03-24T08:58:34;16.60;99.90
10512;DHT22;5304;48.604;2.096;2023-03-24T09:01:20;17.40;99.90
10512;DHT22;5304;48.604;2.096;2023-03-24T09:04:06;17.80;99.90
10512;DHT22;5304;48.604;2.096;2023-03-24T09:06:51;17.40;99.90
10512;DHT22;5304;48.604;2.096;2023-03-24T09:09:36;17.30;99.90
10512;DHT22;5304;48.604;2.096;2023-03-24T09:12:22;17.10;99.90
10512;DHT22;5304;48.604;2.096;2023-03-24T09:15:08;17.20;99.90
10512;DHT22;5304;48.604;2.096;2023-03-24T09:17:54;17.10;99.90
10512;DHT22;5304;48.604;2.096;2023-03-24T09:20:38;16.50;99.90
10512;DHT22;5304;48.604;2.096;2023-03-24T09:23:23;16.40;99.90
10512;DHT22;5304;48.604;2.096;2023-03-24T09:26:07;16.10;99.90
10512;DHT22;5304;48.604;2.096;2023-03-24T09:28:52;15.90;99.90
10512;DHT22;5304;48.604;2.096;2023-03-24T09:31:36;16.40;99.90
10512;DHT22;5304;48.604;2.096;2023-03-24T09:34:21;16.60;99.90
10512;DHT22;5304;48.604;2.096;2023-03-24T09:37:05;16.50;99.90
10512;DHT22;5304;48.604;2.096;2023-03-24T09:39:50;15.50;99.90
10512;DHT22;5304;48.604;2.096;2023-03-24T09:42:37;14.90;99.90
10512;DHT22;5304;48.604;2.096;2023-03-24T09:45:26;14.30;99.90
10512;DHT22;5304;48.604;2.096;2023-03-24T09:48:17;14.00;99.90
10512;DHT22;5304;48.604;2.096;2023-03-24T09:51:06;13.90;99.90
10512;DHT22;5304;48.604;2.096;2023-03-24T09:54:04;14.40;99.90
10512;DHT22;5304;48.604;2.096;2023-03-24T09:56:54;14.70;99.90
10512;DHT22;5304;48.604;2.096;2023-03-24T09:59:39;14.80;99.90
10512;DHT22;5304;48.604;2.096;2023-03-24T10:02:27;14.60;99.90
10512;DHT22;5304;48.604;2.096;2023-03-24T10:05:16;14.50;99.90
10512;DHT22;5304;48.604;2.096;2023-03-24T10:08:30;14.80;99.90
10512;DHT22;5304;48.604;2.096;2023-03-24T10:11:26;14.90;99.90
10512;DHT22;5304;48.604;2.096;2023-03-24T10:17:23;14.90;99.90
10512;DHT22;5304;48.604;2.096;2023-03-24T10:23:31;15.20;99.90
10512;DHT22;5304;48.604;2.096;2023-03-24T10:29:32;15.00;99.90
10512;DHT22;5304;48.604;2.096;2023-03-24T10:32:22;14.90;99.90
10512;DHT22;5304;48.604;2.096;2023-03-24T10:35:18;14.80;99.90
10512;DHT22;5304;48.604;2.096;2023-03-24T10:38:17;15.20;99.90
10512;DHT22;5304;48.604;2.096;2023-03-24T10:41:02;15.50;99.90
10512;DHT22;5304;48.604;2.096;2023-03-24T10:43:49;15.30;99.90
10512;DHT22;5304;48.604;2.096;2023-03-24T10:46:39;14.90;99.90
10512;DHT22;5304;48.604;2.096;2023-03-24T10:49:27;14.80;99.90
10512;DHT22;5304;48.604;2.096;2023-03-24T10:52:12;14.80;99.90
10512;DHT22;5304;48.604;2.096;2023-03-24T10:55:02;14.80;99.90
10512;DHT22;5304;48.604;2.096;2023-03-24T10:57:55;15.10;99.90
10512;DHT22;5304;48.604;2.096;2023-03-24T11:00:43;15.50;99.90
10512;DHT22;5304;48.604;2.096;2023-03-24T11:03:30;15.70;99.90
10512;DHT22;5304;48.604;2.096;2023-03-24T11:06:19;15.60;99.90
10512;DHT22;5304;48.604;2.096;2023-03-24T11:12:02;15.70;99.90
10512;DHT22;5304;48.604;2.096;2023-03-24T11:14:46;15.70;99.90
10512;DHT22;5304;48.604;2.096;2023-03-24T11:17:31;15.80;99.90
10512;DHT22;5304;48.604;2.096;2023-03-24T11:20:32;16.10;99.90
10512;DHT22;5304;48.604;2.096;2023-03-24T11:23:36;16.00;99.90
10512;DHT22;5304;48.604;2.096;2023-03-24T11:26:33;15.80;99.90
10512;DHT22;5304;48.604;2.096;2023-03-24T11:29:20;16.20;99.90
10512;DHT22;5304;48.604;2.096;2023-03-24T11:32:24;16.50;99.90
10512;DHT22;5304;48.604;2.096;2023-03-24T11:35:15;16.20;99.90
10512;DHT22;5304;48.604;2.096;2023-03-24T11:38:05;16.00;99.90
10512;DHT22;5304;48.604;2.096;2023-03-24T11:40:57;15.80;99.90
10512;DHT22;5304;48.604;2.096;2023-03-24T11:43:42;15.70;99.90
10512;DHT22;5304;48.604;2.096;2023-03-24T11:46:29;15.70;99.90
10512;DHT22;5304;48.604;2.096;2023-03-24T11:49:18;15.80;99.90
10512;DHT22;5304;48.604;2.096;2023-03-24T11:52:08;16.00;99.90
10512;DHT22;5304;48.604;2.096;2023-03-24T11:54:56;16.40;99.90
10512;DHT22;5304;48.604;2.096;2023-03-24T11:58:02;16.60;99.90
10512;DHT22;5304;48.604;2.096;2023-03-24T12:00:59;16.20;99.90
10512;DHT22;5304;48.604;2.096;2023-03-24T12:07:35;15.50;99.90
10512;DHT22;5304;48.604;2.096;2023-03-24T12:13:38;15.10;99.90
10512;DHT22;5304;48.604;2.096;2023-03-24T12:23:55;15.00;99.90
10512;DHT22;5304;48.604;2.096;2023-03-24T12:26:30;15.10;99.90
10512;DHT22;5304;48.604;2.096;2023-03-24T12:29:40;15.50;99.90
10512;DHT22;5304;48.604;2.096;2023-03-24T12:36:19;15.60;99.90
10512;DHT22;5304;48.604;2.096;2023-03-24T12:39:13;15.40;99.90
10512;DHT22;5304;48.604;2.096;2023-03-24T12:42:15;15.50;99.90
10512;DHT22;5304;48.604;2.096;2023-03-24T12:51:46;16.00;99.90
10512;DHT22;5304;48.604;2.096;2023-03-24T12:54:54;16.20;99.90
10512;DHT22;5304;48.604;2.096;2023-03-24T12:58:03;16.20;99.90
10512;DHT22;5304;48.604;2.096;2023-03-24T13:01:06;16.40;99.90
10512;DHT22;5304;48.604;2.096;2023-03-24T13:07:11;15.90;99.90
10512;DHT22;5304;48.604;2.096;2023-03-24T13:10:21;15.50;99.90
10512;DHT22;5304;48.604;2.096;2023-03-24T13:13:21;15.70;99.90
10512;DHT22;5304;48.604;2.096;2023-03-24T13:16:20;15.80;99.90
10512;DHT22;5304;48.604;2.096;2023-03-24T13:19:18;16.00;99.90
10512;DHT22;5304;48.604;2.096;2023-03-24T13:22:05;16.10;99.90
10512;DHT22;5304;48.604;2.096;2023-03-24T13:24:55;16.10;99.90
10512;DHT22;5304;48.604;2.096;2023-03-24T13:27:40;16.20;99.90
10512;DHT22;5304;48.604;2.096;2023-03-24T13:30:38;16.40;99.90
10512;DHT22;5304;48.604;2.096;2023-03-24T13:33:29;16.30;99.90
10512;DHT22;5304;48.604;2.096;2023-03-24T13:39:12;15.20;99.90
10512;DHT22;5304;48.604;2.096;2023-03-24T13:41:58;15.10;99.90
10512;DHT22;5304;48.604;2.096;2023-03-24T13:44:43;14.90;99.90
10512;DHT22;5304;48.604;2.096;2023-03-24T13:48:02;14.80;99.90
10512;DHT22;5304;48.604;2.096;2023-03-24T13:51:15;14.70;99.90
10512;DHT22;5304;48.604;2.096;2023-03-24T13:54:16;15.20;99.90
10512;DHT22;5304;48.604;2.096;2023-03-24T14:00:21;16.10;99.90
10512;DHT22;5304;48.604;2.096;2023-03-24T14:03:14;15.70;99.90
10512;DHT22;5304;48.604;2.096;2023-03-24T14:06:16;15.70;99.90
10512;DHT22;5304;48.604;2.096;2023-03-24T14:09:04;15.60;99.90
10512;DHT22;5304;48.604;2.096;2023-03-24T14:15:08;15.70;99.90
10512;DHT22;5304;48.604;2.096;2023-03-24T14:23:47;16.00;99.90
10512;DHT22;5304;48.604;2.096;2023-03-24T14:26:36;15.90;99.90
10512;DHT22;5304;48.604;2.096;2023-03-24T14:29:50;15.70;99.90
10512;DHT22;5304;48.604;2.096;2023-03-24T14:35:38;15.60;99.90
10512;DHT22;5304;48.604;2.096;2023-03-24T14:38:23;16.10;99.90
10512;DHT22;5304;48.604;2.096;2023-03-24T14:41:14;16.00;99.90
10512;DHT22;5304;48.604;2.096;2023-03-24T14:44:00;16.00;99.90
10512;DHT22;5304;48.604;2.096;2023-03-24T14:46:45;15.80;99.90
10512;DHT22;5304;48.604;2.096;2023-03-24T14:49:34;16.00;99.90
10512;DHT22;5304;48.604;2.096;2023-03-24T14:52:34;15.70;99.90
10512;DHT22;5304;48.604;2.096;2023-03-24T14:55:20;15.20;99.90
10512;DHT22;5304;48.604;2.096;2023-03-24T14:58:26;14.90;99.90
10512;DHT22;5304;48.604;2.096;2023-03-24T15:01:13;14.70;99.90
10512;DHT22;5304;48.604;2.096;2023-03-24T15:04:01;14.50;99.90
10512;DHT22;5304;48.604;2.096;2023-03-24T15:06:48;14.10;99.90
10512;DHT22;5304;48.604;2.096;2023-03-24T15:09:35;13.90;99.90
10512;DHT22;5304;48.604;2.096;2023-03-24T15:12:21;13.90;99.90
10512;DHT22;5304;48.604;2.096;2023-03-24T15:15:17;13.80;99.90
10512;DHT22;5304;48.604;2.096;2023-03-24T15:18:02;13.80;99.90
10512;DHT22;5304;48.604;2.096;2023-03-24T15:20:48;13.90;99.90
10512;DHT22;5304;48.604;2.096;2023-03-24T15:23:33;13.80;99.90
10512;DHT22;5304;48.604;2.096;2023-03-24T15:26:20;14.00;99.90
10512;DHT22;5304;48.604;2.096;2023-03-24T15:29:05;13.90;99.90
10512;DHT22;5304;48.604;2.096;2023-03-24T15:31:50;13.70;99.90
10512;DHT22;5304;48.604;2.096;2023-03-24T15:34:55;13.80;99.90
10512;DHT22;5304;48.604;2.096;2023-03-24T15:37:41;13.90;99.90
10512;DHT22;5304;48.604;2.096;2023-03-24T15:40:33;14.00;99.90
10512;DHT22;5304;48.604;2.096;2023-03-24T15:43:19;14.00;99.90
10512;DHT22;5304;48.604;2.096;2023-03-24T15:46:04;14.10;99.90
10512;DHT22;5304;48.604;2.096;2023-03-24T15:48:51;14.10;99.90
10512;DHT22;5304;48.604;2.096;2023-03-24T15:54:43;13.80;99.90
10512;DHT22;5304;48.604;2.096;2023-03-24T15:57:37;13.60;99.90
10512;DHT22;5304;48.604;2.096;2023-03-24T16:00:28;13.40;99.90
10512;DHT22;5304;48.604;2.096;2023-03-24T16:03:13;13.30;99.90
10512;DHT22;5304;48.604;2.096;2023-03-24T16:06:01;13.40;99.90
10512;DHT22;5304;48.604;2.096;2023-03-24T16:08:46;13.50;99.90
10512;DHT22;5304;48.604;2.096;2023-03-24T16:11:32;13.70;99.90
10512;DHT22;5304;48.604;2.096;2023-03-24T16:14:27;13.70;99.90
10512;DHT22;5304;48.604;2.096;2023-03-24T16:17:12;13.70;99.90
10512;DHT22;5304;48.604;2.096;2023-03-24T16:19:56;13.70;99.90
10512;DHT22;5304;48.604;2.096;2023-03-24T16:22:41;13.70;99.90
10512;DHT22;5304;48.604;2.096;2023-03-24T16:25:25;13.80;99.90
10512;DHT22;5304;48.604;2.096;2023-03-24T16:28:16;13.90;99.90
10512;DHT22;5304;48.604;2.096;2023-03-24T16:31:02;13.90;99.90
10512;DHT22;5304;48.604;2.096;2023-03-24T16:33:48;13.90;99.90
10512;DHT22;5304;48.604;2.096;2023-03-24T16:36:32;13.90;99.90
10512;DHT22;5304;48.604;2.096;2023-03-24T16:39:22;13.80;99.90
10512;DHT22;5304;48.604;2.096;2023-03-24T16:42:07;13.80;99.90
10512;DHT22;5304;48.604;2.096;2023-03-24T16:44:51;13.80;99.90
10512;DHT22;5304;48.604;2.096;2023-03-24T16:47:36;13.80;99.90
10512;DHT22;5304;48.604;2.096;2023-03-24T16:50:40;13.80;99.90
10512;DHT22;5304;48.604;2.096;2023-03-24T16:53:25;13.80;99.90
10512;DHT22;5304;48.604;2.096;2023-03-24T16:56:13;13.70;99.90
10512;DHT22;5304;48.604;2.096;2023-03-24T16:58:57;13.60;99.90
10512;DHT22;5304;48.604;2.096;2023-03-24T17:01:43;13.60;99.90
10512;DHT22;5304;48.604;2.096;2023-03-24T17:04:28;13.50;99.90
10512;DHT22;5304;48.604;2.096;2023-03-24T17:07:16;13.60;99.90
10512;DHT22;5304;48.604;2.096;2023-03-24T17:10:01;13.50;99.90
10512;DHT22;5304;48.604;2.096;2023-03-24T17:12:46;13.50;99.90
10512;DHT22;5304;48.604;2.096;2023-03-24T17:15:32;13.50;99.90
10512;DHT22;5304;48.604;2.096;2023-03-24T17:18:17;13.40;99.90
10512;DHT22;5304;48.604;2.096;2023-03-24T17:21:02;13.40;99.90
10512;DHT22;5304;48.604;2.096;2023-03-24T17:23:47;13.30;99.90
10512;DHT22;5304;48.604;2.096;2023-03-24T17:26:32;13.20;99.90
10512;DHT22;5304;48.604;2.096;2023-03-24T17:29:17;13.00;99.90
10512;DHT22;5304;48.604;2.096;2023-03-24T17:32:02;12.80;99.90
10512;DHT22;5304;48.604;2.096;2023-03-24T17:34:46;12.60;99.90
10512;DHT22;5304;48.604;2.096;2023-03-24T17:37:31;12.40;99.90
10512;DHT22;5304;48.604;2.096;2023-03-24T17:40:17;12.40;99.90
10512;DHT22;5304;48.604;2.096;2023-03-24T17:43:02;12.20;99.90
10512;DHT22;5304;48.604;2.096;2023-03-24T17:45:48;11.90;99.90
10512;DHT22;5304;48.604;2.096;2023-03-24T17:48:33;11.60;99.90
10512;DHT22;5304;48.604;2.096;2023-03-24T17:51:17;11.50;99.90
10512;DHT22;5304;48.604;2.096;2023-03-24T17:54:02;11.40;99.90
10512;DHT22;5304;48.604;2.096;2023-03-24T17:56:47;11.20;99.90
10512;DHT22;5304;48.604;2.096;2023-03-24T17:59:31;10.90;99.90
10512;DHT22;5304;48.604;2.096;2023-03-24T18:02:16;10.70;99.90
10512;DHT22;5304;48.604;2.096;2023-03-24T18:05:01;10.40;99.90
10512;DHT22;5304;48.604;2.096;2023-03-24T18:07:46;10.30;99.90
10512;DHT22;5304;48.604;2.096;2023-03-24T18:10:32;10.20;99.90
10512;DHT22;5304;48.604;2.096;2023-03-24T18:13:18;10.20;99.90
10512;DHT22;5304;48.604;2.096;2023-03-24T18:16:06;10.10;99.90
10512;DHT22;5304;48.604;2.096;2023-03-24T18:18:51;10.10;99.90
10512;DHT22;5304;48.604;2.096;2023-03-24T18:21:36;10.10;99.90
10512;DHT22;5304;48.604;2.096;2023-03-24T18:24:20;10.00;99.90
10512;DHT22;5304;48.604;2.096;2023-03-24T18:27:05;10.00;99.90
10512;DHT22;5304;48.604;2.096;2023-03-24T18:29:53;10.00;99.90
10512;DHT22;5304;48.604;2.096;2023-03-24T18:32:38;10.00;99.90
10512;DHT22;5304;48.604;2.096;2023-03-24T18:35:24;9.90;99.90
10512;DHT22;5304;48.604;2.096;2023-03-24T18:38:08;9.90;99.90
10512;DHT22;5304;48.604;2.096;2023-03-24T18:41:00;9.90;99.90
10512;DHT22;5304;48.604;2.096;2023-03-24T18:43:45;10.00;99.90
10512;DHT22;5304;48.604;2.096;2023-03-24T18:46:30;10.00;99.90
10512;DHT22;5304;48.604;2.096;2023-03-24T18:49:15;10.00;99.90
10512;DHT22;5304;48.604;2.096;2023-03-24T18:51:59;9.90;99.90
10512;DHT22;5304;48.604;2.096;2023-03-24T18:54:44;9.90;99.90
10512;DHT22;5304;48.604;2.096;2023-03-24T18:57:29;9.90;99.90
10512;DHT22;5304;48.604;2.096;2023-03-24T19:00:14;9.80;99.90
10512;DHT22;5304;48.604;2.096;2023-03-24T19:02:58;9.80;99.90
10512;DHT22;5304;48.604;2.096;2023-03-24T19:05:43;9.70;99.90
10512;DHT22;5304;48.604;2.096;2023-03-24T19:08:27;9.70;99.90
10512;DHT22;5304;48.604;2.096;2023-03-24T19:11:13;9.80;99.90
10512;DHT22;5304;48.604;2.096;2023-03-24T19:13:57;9.90;99.90
10512;DHT22;5304;48.604;2.096;2023-03-24T19:16:43;10.00;99.90
10512;DHT22;5304;48.604;2.096;2023-03-24T19:19:27;10.10;99.90
10512;DHT22;5304;48.604;2.096;2023-03-24T19:22:14;10.20;99.90
10512;DHT22;5304;48.604;2.096;2023-03-24T19:25:04;10.20;99.90
10512;DHT22;5304;48.604;2.096;2023-03-24T19:27:49;10.20;99.90
10512;DHT22;5304;48.604;2.096;2023-03-24T19:30:36;10.10;99.90
10512;DHT22;5304;48.604;2.096;2023-03-24T19:33:20;10.10;99.90
10512;DHT22;5304;48.604;2.096;2023-03-24T19:36:06;10.10;99.90
10512;DHT22;5304;48.604;2.096;2023-03-24T19:38:52;10.00;99.90
10512;DHT22;5304;48.604;2.096;2023-03-24T19:41:38;10.00;99.90
10512;DHT22;5304;48.604;2.096;2023-03-24T19:44:23;10.00;99.90
10512;DHT22;5304;48.604;2.096;2023-03-24T19:47:07;9.90;99.90
10512;DHT22;5304;48.604;2.096;2023-03-24T19:49:52;9.90;99.90
10512;DHT22;5304;48.604;2.096;2023-03-24T19:52:39;10.00;99.90
10512;DHT22;5304;48.604;2.096;2023-03-24T19:55:26;10.00;99.90
10512;DHT22;5304;48.604;2.096;2023-03-24T19:58:10;10.00;99.90